Time;durP1;ratioP1;P1;durP2;ratioP2;P2;SDS_P1;SDS_P2;PMS_P1;PMS_P2;Temp;Humidity;BMP_temperature;BMP_pressure;BME280_temperature;BME280_humidity;BME280_pressure;Samples;Min_cycle;Max_cycle;Signal;HPM_P1;HPM_P2
2022/09/09 00:00:57;;;;;;;3.30;3.00;;;26.80;52.60;;;;;;4980247;28;20472;-81
2022/09/09 00:03:26;;;;;;;2.97;2.70;;;26.80;52.50;;;;;;4979953;28;20429;-81
2022/09/09 00:06:01;;;;;;;4.70;2.87;;;26.80;52.40;;;;;;4980827;28;20560;-81
2022/09/09 00:08:35;;;;;;;7.90;3.07;;;26.80;52.40;;;;;;4980703;28;20470;-81
2022/09/09 00:11:04;;;;;;;3.00;2.80;;;26.80;52.50;;;;;;4980078;28;20435;-81
2022/09/09 00:13:35;;;;;;;4.10;2.77;;;26.80;52.30;;;;;;4979520;28;20428;-81
2022/09/09 00:16:05;;;;;;;2.63;2.43;;;26.70;52.40;;;;;;4979892;28;20441;-80
2022/09/09 00:18:50;;;;;;;3.83;2.83;;;26.70;52.20;;;;;;4977654;28;20428;-80
2022/09/09 00:21:18;;;;;;;2.93;2.67;;;26.70;52.30;;;;;;4977995;28;20428;-80
2022/09/09 00:23:49;;;;;;;3.70;2.50;;;26.70;52.50;;;;;;4978286;28;20429;-80
2022/09/09 00:26:20;;;;;;;2.77;2.57;;;26.70;52.30;;;;;;4978603;28;20444;-80
2022/09/09 00:28:51;;;;;;;3.00;2.80;;;26.70;52.20;;;;;;4978883;28;20516;-81
2022/09/09 00:31:22;;;;;;;3.17;2.90;;;26.70;52.30;;;;;;4979591;28;20450;-80
2022/09/09 00:33:50;;;;;;;3.43;2.60;;;26.60;52.40;;;;;;4980220;28;20481;-81
2022/09/09 00:36:19;;;;;;;2.70;2.60;;;26.70;52.50;;;;;;4979242;28;20521;-81
2022/09/09 00:38:51;;;;;;;4.20;2.67;;;26.60;52.20;;;;;;4979527;28;20461;-81
2022/09/09 00:41:22;;;;;;;4.13;3.00;;;26.60;52.40;;;;;;4979607;28;20434;-80
2022/09/09 00:43:57;;;;;;;3.40;3.10;;;26.60;52.20;;;;;;4979701;28;20450;-81
2022/09/09 00:46:48;;;;;;;4.50;2.90;;;26.60;52.60;;;;;;4979438;28;20480;-81
2022/09/09 00:49:21;;;;;;;3.13;2.93;;;26.70;52.30;;;;;;4986708;28;20471;-83
2022/09/09 00:51:52;;;;;;;2.70;2.60;;;26.60;52.30;;;;;;4984569;28;20442;-80
2022/09/09 00:54:34;;;;;;;3.20;2.60;;;26.60;52.20;;;;;;4981678;28;20420;-80
2022/09/09 00:57:14;;;;;;;4.33;2.53;;;26.60;52.20;;;;;;4982210;28;20413;-80
2022/09/09 00:59:47;;;;;;;3.03;2.70;;;26.60;52.20;;;;;;4963004;28;20421;-80
2022/09/09 01:02:21;;;;;;;2.97;2.77;;;26.60;52.20;;;;;;4962524;28;20457;-80
2022/09/09 01:04:50;;;;;;;2.77;2.57;;;26.60;52.40;;;;;;4961762;28;20453;-80
2022/09/09 01:07:19;;;;;;;2.50;2.40;;;26.60;52.30;;;;;;4960971;29;20426;-80
2022/09/09 01:09:55;;;;;;;3.33;3.03;;;26.60;52.20;;;;;;4961261;28;20426;-81
2022/09/09 01:12:33;;;;;;;3.20;2.67;;;26.60;52.20;;;;;;4963146;29;20459;-80
2022/09/09 01:15:09;;;;;;;2.73;2.53;;;26.60;52.20;;;;;;4960961;28;20471;-80
2022/09/09 01:17:53;;;;;;;4.83;2.70;;;26.50;52.20;;;;;;4961048;29;20541;-81
2022/09/09 01:20:25;;;;;;;2.70;2.60;;;26.50;52.10;;;;;;4961633;29;20459;-81
2022/09/09 01:23:06;;;;;;;2.70;2.50;;;26.50;52.30;;;;;;4961360;29;20512;-80
2022/09/09 01:26:14;;;;;;;2.77;2.57;;;26.60;52.20;;;;;;4961041;28;20437;-80
2022/09/09 01:28:43;;;;;;;2.70;2.60;;;26.50;52.10;;;;;;4959683;29;20474;-80
2022/09/09 01:31:12;;;;;;;3.10;2.90;;;26.50;52.00;;;;;;4960668;29;20442;-80
2022/09/09 01:33:40;;;;;;;3.00;2.80;;;26.50;52.30;;;;;;4960209;29;20627;-81
2022/09/09 01:36:10;;;;;;;3.13;2.70;;;26.50;52.10;;;;;;4960532;28;20457;-80
2022/09/09 01:38:38;;;;;;;3.10;2.90;;;26.50;52.10;;;;;;4960603;29;20546;-80
2022/09/09 01:41:08;;;;;;;4.10;2.70;;;26.50;52.20;;;;;;4960925;29;20805;-80
2022/09/09 01:43:51;;;;;;;4.70;2.90;;;26.50;52.50;;;;;;4959127;29;20429;-81
2022/09/09 01:46:22;;;;;;;2.93;2.77;;;26.50;52.00;;;;;;4960455;28;20529;-80
2022/09/09 01:48:51;;;;;;;3.23;3.03;;;26.50;52.20;;;;;;4960496;29;20544;-80
2022/09/09 01:51:19;;;;;;;3.00;2.80;;;26.50;52.10;;;;;;4960192;29;20525;-81
2022/09/09 01:53:49;;;;;;;2.80;2.70;;;26.40;52.00;;;;;;4959644;29;20437;-81
2022/09/09 01:56:26;;;;;;;3.03;2.70;;;26.50;52.00;;;;;;4960164;28;20974;-80
2022/09/09 01:59:03;;;;;;;3.20;3.03;;;26.50;52.20;;;;;;4959581;29;20474;-81
2022/09/09 02:01:41;;;;;;;3.27;2.67;;;26.40;52.00;;;;;;4959957;29;20489;-81
2022/09/09 02:04:12;;;;;;;3.60;2.90;;;26.50;52.10;;;;;;4959409;29;20453;-80
2022/09/09 02:06:41;;;;;;;2.80;2.60;;;26.40;52.00;;;;;;4959463;28;20446;-81
2022/09/09 02:09:10;;;;;;;3.03;2.90;;;26.40;52.00;;;;;;4959894;29;20873;-81
2022/09/09 02:11:40;;;;;;;2.73;2.60;;;26.40;52.00;;;;;;4960085;29;20516;-81
2022/09/09 02:14:11;;;;;;;3.00;2.80;;;26.40;51.90;;;;;;4961191;28;20429;-80
2022/09/09 02:16:41;;;;;;;2.70;2.60;;;26.40;51.90;;;;;;4959439;28;20544;-81
2022/09/09 02:19:13;;;;;;;3.10;2.90;;;26.40;52.00;;;;;;4959555;29;20443;-81
2022/09/09 02:21:41;;;;;;;2.90;2.70;;;26.40;52.00;;;;;;4958049;28;20421;-81
2022/09/09 02:24:10;;;;;;;4.33;3.10;;;26.40;52.40;;;;;;4961136;29;20413;-82
2022/09/09 02:26:41;;;;;;;2.77;2.57;;;26.40;51.90;;;;;;4958145;28;20473;-80
2022/09/09 02:29:10;;;;;;;2.70;2.60;;;26.40;52.00;;;;;;4958225;28;20467;-81
2022/09/09 02:31:39;;;;;;;3.23;2.90;;;26.40;52.00;;;;;;4959010;29;20461;-81
2022/09/09 02:34:08;;;;;;;2.80;2.60;;;26.40;51.70;;;;;;4958540;29;20426;-80
2022/09/09 02:36:37;;;;;;;2.87;2.77;;;26.40;52.00;;;;;;4958374;28;20479;-81
2022/09/09 02:39:06;;;;;;;3.13;2.93;;;26.40;51.90;;;;;;4958680;29;20425;-81
2022/09/09 02:41:35;;;;;;;4.33;3.00;;;26.40;52.00;;;;;;4955858;29;20486;-79
2022/09/09 02:44:06;;;;;;;3.03;2.60;;;26.40;51.90;;;;;;4955868;29;20426;-79
2022/09/09 02:46:43;;;;;;;3.60;2.50;;;26.40;51.80;;;;;;4954632;28;20479;-79
2022/09/09 02:49:12;;;;;;;2.63;2.50;;;26.40;51.90;;;;;;4954081;29;20485;-76
2022/09/09 02:51:45;;;;;;;3.07;2.87;;;26.40;52.00;;;;;;4953845;29;20453;-79
2022/09/09 02:54:18;;;;;;;3.00;2.80;;;26.30;51.90;;;;;;4960176;28;20933;-79
2022/09/09 02:56:49;;;;;;;2.80;2.60;;;26.30;51.70;;;;;;4973320;28;20466;-79
2022/09/09 02:59:19;;;;;;;3.00;2.80;;;26.30;51.90;;;;;;4972792;28;20420;-81
2022/09/09 03:01:47;;;;;;;2.80;2.70;;;26.30;51.90;;;;;;4973598;28;20454;-79
2022/09/09 03:04:17;;;;;;;2.87;2.67;;;26.30;51.80;;;;;;4973322;28;20457;-79
2022/09/09 03:06:45;;;;;;;2.73;2.53;;;26.30;52.00;;;;;;4973038;28;20450;-79
2022/09/09 03:09:13;;;;;;;2.77;2.57;;;26.30;51.80;;;;;;4973026;28;20448;-79
2022/09/09 03:11:42;;;;;;;2.37;2.27;;;26.20;51.90;;;;;;4973096;28;20429;-79
2022/09/09 03:14:11;;;;;;;3.17;2.70;;;26.30;51.90;;;;;;4973105;28;20447;-79
2022/09/09 03:16:42;;;;;;;2.50;2.40;;;26.30;51.90;;;;;;4973128;28;20440;-79
2022/09/09 03:19:10;;;;;;;2.90;2.70;;;26.30;51.80;;;;;;4972907;28;20424;-79
2022/09/09 03:21:41;;;;;;;2.50;2.30;;;26.30;51.80;;;;;;4973203;28;20417;-79
2022/09/09 03:24:09;;;;;;;3.00;2.63;;;26.30;51.80;;;;;;4972896;28;20421;-76
2022/09/09 03:26:38;;;;;;;3.90;2.30;;;26.30;51.90;;;;;;4973148;28;20459;-81
2022/09/09 03:29:06;;;;;;;2.80;2.23;;;26.40;51.70;;;;;;4973672;28;20456;-80
2022/09/09 03:31:35;;;;;;;2.17;2.07;;;26.30;51.70;;;;;;4973989;28;20424;-79
2022/09/09 03:34:05;;;;;;;2.40;2.30;;;26.30;51.50;;;;;;4977224;28;20454;-77
2022/09/09 03:36:33;;;;;;;2.67;2.47;;;26.30;51.60;;;;;;4977005;28;20468;-79
2022/09/09 03:39:02;;;;;;;2.70;2.50;;;26.30;51.60;;;;;;4976857;28;20425;-79
2022/09/09 03:41:30;;;;;;;2.77;2.57;;;26.30;51.80;;;;;;4976672;28;20421;-81
2022/09/09 03:43:58;;;;;;;2.93;2.70;;;26.30;51.80;;;;;;4976415;28;20833;-79
2022/09/09 03:46:26;;;;;;;2.40;2.30;;;26.20;51.50;;;;;;4977173;28;20439;-80
2022/09/09 03:48:54;;;;;;;2.53;2.23;;;26.20;51.60;;;;;;4976826;28;20431;-79
2022/09/09 03:51:24;;;;;;;2.60;2.40;;;26.20;51.60;;;;;;4977135;28;20420;-79
2022/09/09 03:53:54;;;;;;;2.40;2.30;;;26.20;51.70;;;;;;4978334;28;20428;-79
2022/09/09 03:56:22;;;;;;;3.00;2.60;;;26.20;51.70;;;;;;4960891;28;20478;-79
2022/09/09 03:58:50;;;;;;;3.60;2.57;;;26.20;51.70;;;;;;4960116;29;20451;-79
2022/09/09 04:01:18;;;;;;;2.50;2.40;;;26.20;51.80;;;;;;4959111;29;20430;-80
2022/09/09 04:03:46;;;;;;;2.20;2.10;;;26.20;51.70;;;;;;4965115;29;20450;-82
2022/09/09 04:06:14;;;;;;;2.43;2.33;;;26.20;51.80;;;;;;4965982;28;20470;-81
2022/09/09 04:08:44;;;;;;;3.17;2.30;;;26.20;51.60;;;;;;4966981;29;20457;-79
2022/09/09 04:11:13;;;;;;;2.60;2.40;;;26.20;51.60;;;;;;4964671;29;20483;-80
2022/09/09 04:13:42;;;;;;;2.57;2.47;;;26.20;51.80;;;;;;4966827;29;20425;-78
2022/09/09 04:16:10;;;;;;;2.30;2.20;;;26.20;51.80;;;;;;4966352;28;20882;-78
2022/09/09 04:18:41;;;;;;;2.20;2.10;;;26.20;51.60;;;;;;4966361;29;20452;-78
2022/09/09 04:21:10;;;;;;;2.93;2.07;;;26.20;51.60;;;;;;4967546;29;20459;-80
2022/09/09 04:23:37;;;;;;;4.30;2.33;;;26.20;51.80;;;;;;4968033;29;20439;-79
2022/09/09 04:26:07;;;;;;;2.53;2.43;;;26.20;51.70;;;;;;4968328;28;20477;-80
2022/09/09 04:28:36;;;;;;;2.10;2.00;;;26.20;51.80;;;;;;4966092;29;20456;-79
2022/09/09 04:31:09;;;;;;;2.40;2.30;;;26.10;51.70;;;;;;4964152;29;20475;-79
2022/09/09 04:33:39;;;;;;;2.60;2.40;;;26.10;51.80;;;;;;4961368;28;20512;-79
2022/09/09 04:36:07;;;;;;;2.33;2.23;;;26.10;51.70;;;;;;4960892;28;20454;-81
2022/09/09 04:38:35;;;;;;;2.20;2.10;;;26.10;51.70;;;;;;4960022;29;20453;-79
2022/09/09 04:41:04;;;;;;;3.90;2.10;;;26.10;51.60;;;;;;4961184;29;20421;-78
2022/09/09 04:43:34;;;;;;;2.30;2.10;;;26.10;51.60;;;;;;4955972;28;20457;-79
2022/09/09 04:46:02;;;;;;;6.10;2.20;;;26.10;51.70;;;;;;4956827;28;20542;-79
2022/09/09 04:48:30;;;;;;;2.30;1.90;;;26.10;51.80;;;;;;4958132;29;20457;-79
2022/09/09 04:51:10;;;;;;;4.67;2.43;;;26.10;51.80;;;;;;4960884;29;20453;-79
2022/09/09 04:53:40;;;;;;;2.53;2.20;;;26.10;51.70;;;;;;4963217;28;20457;-79
2022/09/09 04:56:09;;;;;;;2.23;2.13;;;26.10;51.80;;;;;;4978141;28;20477;-80
2022/09/09 04:58:42;;;;;;;2.00;1.90;;;26.10;51.90;;;;;;4977429;28;20423;-79
2022/09/09 05:01:11;;;;;;;2.20;2.10;;;26.10;51.70;;;;;;4976684;28;20454;-79
2022/09/09 05:03:39;;;;;;;2.20;1.97;;;26.00;51.80;;;;;;4976473;28;20460;-79
2022/09/09 05:06:09;;;;;;;2.40;2.13;;;26.00;51.80;;;;;;4976695;28;20445;-80
2022/09/09 05:08:37;;;;;;;1.93;1.83;;;26.00;52.00;;;;;;4976883;28;20454;-80
2022/09/09 05:11:12;;;;;;;2.03;1.93;;;26.00;51.60;;;;;;4975629;28;20449;-79
2022/09/09 05:13:41;;;;;;;2.60;2.40;;;26.10;51.80;;;;;;4976607;28;20428;-80
2022/09/09 05:16:10;;;;;;;2.00;1.90;;;26.10;51.90;;;;;;4975952;28;20440;-79
2022/09/09 05:18:39;;;;;;;2.10;2.00;;;26.00;51.60;;;;;;4976334;28;20450;-79
2022/09/09 05:21:07;;;;;;;2.00;1.90;;;26.10;51.70;;;;;;4976713;28;20421;-79
2022/09/09 05:23:35;;;;;;;2.00;1.90;;;26.00;51.60;;;;;;4976661;28;20454;-79
2022/09/09 05:26:03;;;;;;;2.33;2.00;;;26.00;51.70;;;;;;4977261;28;20448;-80
2022/09/09 05:28:31;;;;;;;2.13;2.03;;;26.10;51.60;;;;;;4977279;28;20928;-79
2022/09/09 05:31:03;;;;;;;2.60;2.00;;;26.10;51.60;;;;;;4976265;28;20480;-79
2022/09/09 05:33:33;;;;;;;2.23;2.13;;;26.10;51.60;;;;;;4978845;28;20450;-79
2022/09/09 05:36:02;;;;;;;2.00;1.90;;;26.10;51.60;;;;;;4979720;28;20487;-80
2022/09/09 05:38:30;;;;;;;2.50;2.10;;;26.10;51.40;;;;;;4980841;28;20432;-78
2022/09/09 05:40:58;;;;;;;1.63;1.57;;;26.10;51.50;;;;;;4980185;28;20446;-77
2022/09/09 05:43:27;;;;;;;2.03;1.83;;;26.10;51.50;;;;;;4985657;28;20424;-78
2022/09/09 05:46:04;;;;;;;2.20;2.03;;;26.20;51.50;;;;;;4985675;28;20443;-79
2022/09/09 05:48:32;;;;;;;1.80;1.70;;;26.20;51.40;;;;;;4985115;28;20435;-78
2022/09/09 05:51:01;;;;;;;2.10;2.00;;;26.20;51.20;;;;;;4981945;28;20457;-80
2022/09/09 05:53:32;;;;;;;1.80;1.70;;;26.20;51.10;;;;;;4977844;28;20424;-79
2022/09/09 05:56:03;;;;;;;2.00;1.90;;;26.20;51.20;;;;;;4981100;28;20451;-81
2022/09/09 05:58:31;;;;;;;1.73;1.63;;;26.30;51.10;;;;;;4982411;28;20420;-79
2022/09/09 06:01:05;;;;;;;1.77;1.77;;;26.30;51.10;;;;;;4982947;28;20448;-79
2022/09/09 06:03:33;;;;;;;1.93;1.83;;;26.30;50.90;;;;;;4982059;28;20458;-80
2022/09/09 06:06:05;;;;;;;1.90;1.80;;;26.40;51.00;;;;;;4982657;28;20447;-79
2022/09/09 06:08:33;;;;;;;1.50;1.40;;;26.40;51.00;;;;;;4983089;28;20792;-79
2022/09/09 06:11:04;;;;;;;1.97;1.87;;;26.50;50.70;;;;;;4983145;28;20444;-79
2022/09/09 06:13:32;;;;;;;1.90;1.43;;;26.50;50.70;;;;;;4981715;28;20450;-79
2022/09/09 06:16:00;;;;;;;1.80;1.70;;;26.50;50.70;;;;;;4980545;28;20478;-79
2022/09/09 06:18:30;;;;;;;1.60;1.60;;;26.50;50.60;;;;;;4982507;28;20802;-78
2022/09/09 06:21:00;;;;;;;1.87;1.70;;;26.50;50.50;;;;;;4982964;28;20442;-79
2022/09/09 06:23:29;;;;;;;1.50;1.50;;;26.50;50.40;;;;;;4983331;28;20538;-81
2022/09/09 06:26:05;;;;;;;1.40;1.40;;;26.50;50.50;;;;;;4982195;28;20444;-80
2022/09/09 06:28:33;;;;;;;1.83;1.70;;;26.60;50.40;;;;;;4982278;28;20446;-79
2022/09/09 06:31:01;;;;;;;1.80;1.67;;;26.60;50.50;;;;;;4979901;28;20482;-79
2022/09/09 06:33:34;;;;;;;3.00;1.67;;;26.60;50.40;;;;;;4981008;28;20449;-79
2022/09/09 06:36:03;;;;;;;1.40;1.30;;;26.60;50.20;;;;;;4982504;28;20505;-78
2022/09/09 06:38:31;;;;;;;1.80;1.73;;;26.60;50.20;;;;;;4982162;28;20426;-79
2022/09/09 06:41:01;;;;;;;1.57;1.57;;;26.60;50.20;;;;;;4983646;28;20457;-79
2022/09/09 06:43:30;;;;;;;1.63;1.53;;;26.60;50.20;;;;;;4983953;28;20451;-79
2022/09/09 06:45:58;;;;;;;1.73;1.63;;;26.60;50.30;;;;;;4983928;28;20445;-80
2022/09/09 06:48:27;;;;;;;1.63;1.53;;;26.60;50.20;;;;;;4983854;28;20429;-79
2022/09/09 06:51:04;;;;;;;4.10;1.47;;;26.50;50.20;;;;;;4981606;28;20476;-78
2022/09/09 06:53:33;;;;;;;1.77;1.67;;;26.60;50.30;;;;;;4979937;28;20420;-80
2022/09/09 06:56:02;;;;;;;1.60;1.50;;;26.60;50.50;;;;;;4956277;28;20446;-79
2022/09/09 06:58:30;;;;;;;1.63;1.53;;;26.60;50.30;;;;;;4962224;29;20437;-79
2022/09/09 07:01:03;;;;;;;2.17;1.97;;;26.60;50.30;;;;;;4964519;29;20451;-79
2022/09/09 07:03:31;;;;;;;1.80;1.70;;;26.60;50.20;;;;;;4963082;29;20486;-79
2022/09/09 07:05:59;;;;;;;1.70;1.60;;;26.60;50.80;;;;;;4965084;28;20493;-80
2022/09/09 07:08:30;;;;;;;1.60;1.60;;;26.60;50.20;;;;;;4968956;29;20433;-79
2022/09/09 07:11:04;;;;;;;2.90;1.63;;;26.60;50.10;;;;;;4968143;29;20449;-78
2022/09/09 07:13:38;;;;;;;1.90;1.80;;;26.60;50.20;;;;;;4969069;29;20530;-79
2022/09/09 07:16:06;;;;;;;1.50;1.40;;;26.70;50.10;;;;;;4968796;28;20475;-80
2022/09/09 07:18:35;;;;;;;1.60;1.50;;;26.70;50.30;;;;;;4962834;29;20452;-80
2022/09/09 07:21:03;;;;;;;1.93;1.43;;;26.70;50.20;;;;;;4961902;29;20443;-80
2022/09/09 07:23:35;;;;;;;1.80;1.70;;;26.70;50.20;;;;;;4961797;29;20425;-80
2022/09/09 07:26:04;;;;;;;2.20;1.60;;;26.70;50.10;;;;;;4961158;28;20517;-80
2022/09/09 07:28:32;;;;;;;1.40;1.30;;;26.70;50.00;;;;;;4960642;29;20429;-80
2022/09/09 07:31:02;;;;;;;1.40;1.40;;;26.70;50.00;;;;;;4961894;28;20944;-80
2022/09/09 07:33:30;;;;;;;1.90;1.90;;;26.70;50.20;;;;;;4978494;28;20428;-79
2022/09/09 07:36:03;;;;;;;1.50;1.40;;;26.70;50.10;;;;;;4979957;28;20590;-80
2022/09/09 07:38:32;;;;;;;1.93;1.67;;;26.70;50.20;;;;;;4978256;28;20434;-79
2022/09/09 07:41:05;;;;;;;3.57;1.90;;;26.70;50.30;;;;;;4978438;28;20412;-79
2022/09/09 07:43:34;;;;;;;3.87;1.70;;;26.80;50.40;;;;;;4978040;28;20458;-81
2022/09/09 07:46:02;;;;;;;13.33;2.67;;;26.80;51.20;;;;;;4978978;28;20967;-80
2022/09/09 07:48:30;;;;;;;10.47;2.80;;;26.90;52.20;;;;;;4978004;28;20453;-79
2022/09/09 07:51:06;;;;;;;21.80;3.30;;;27.00;52.40;;;;;;4977842;28;20772;-80
2022/09/09 07:53:38;;;;;;;10.00;2.43;;;27.10;52.60;;;;;;4977880;28;20453;-80
2022/09/09 07:56:07;;;;;;;12.07;2.80;;;27.20;52.80;;;;;;4979560;28;20449;-81
2022/09/09 07:58:35;;;;;;;16.17;3.20;;;27.20;52.70;;;;;;4977994;28;20457;-79
2022/09/09 08:01:09;;;;;;;15.07;2.80;;;27.30;52.60;;;;;;4978740;28;20460;-79
2022/09/09 08:03:37;;;;;;;15.07;2.83;;;27.30;52.40;;;;;;4977422;28;20468;-79
2022/09/09 08:06:06;;;;;;;8.23;2.23;;;27.40;52.40;;;;;;4977121;28;20462;-80
2022/09/09 08:08:37;;;;;;;13.53;2.10;;;27.40;52.00;;;;;;4980516;28;20429;-75
2022/09/09 08:11:07;;;;;;;5.23;2.10;;;27.50;51.90;;;;;;4979963;28;20481;-81
2022/09/09 08:13:35;;;;;;;3.67;2.17;;;27.50;51.90;;;;;;4979393;28;20450;-80
2022/09/09 08:16:07;;;;;;;9.93;2.60;;;27.60;51.90;;;;;;4979036;28;20447;-80
2022/09/09 08:18:35;;;;;;;3.80;2.00;;;27.70;52.00;;;;;;4978188;28;20463;-81
2022/09/09 08:21:08;;;;;;;3.73;2.17;;;27.70;51.90;;;;;;4979429;28;20420;-80
2022/09/09 08:23:38;;;;;;;12.07;2.37;;;27.80;51.80;;;;;;4979409;28;20432;-80
2022/09/09 08:26:08;;;;;;;5.40;2.13;;;27.90;51.80;;;;;;4979296;28;20466;-80
2022/09/09 08:28:36;;;;;;;7.30;2.20;;;28.00;51.70;;;;;;4979335;28;20442;-80
2022/09/09 08:31:09;;;;;;;6.60;2.07;;;28.10;51.30;;;;;;4980598;28;20446;-80
2022/09/09 08:33:38;;;;;;;6.70;2.30;;;28.10;50.90;;;;;;4979854;28;20470;-80
2022/09/09 08:36:06;;;;;;;2.57;1.53;;;28.20;50.70;;;;;;4980689;28;20440;-80
2022/09/09 08:38:34;;;;;;;4.90;1.97;;;28.20;50.60;;;;;;4981309;28;20794;-80
2022/09/09 08:41:13;;;;;;;9.90;1.80;;;28.20;50.20;;;;;;4981445;28;20425;-80
2022/09/09 08:43:41;;;;;;;3.53;1.80;;;28.40;50.40;;;;;;4981100;28;20420;-80
2022/09/09 08:46:12;;;;;;;3.10;1.80;;;28.60;50.10;;;;;;4981662;28;20454;-81
2022/09/09 08:48:45;;;;;;;3.97;1.50;;;28.80;49.50;;;;;;4981155;28;20456;-80
2022/09/09 08:51:13;;;;;;;2.63;1.80;;;28.90;48.90;;;;;;4981229;28;20446;-80
2022/09/09 08:53:43;;;;;;;4.73;1.93;;;28.90;48.70;;;;;;4980902;28;20444;-79
2022/09/09 08:56:13;;;;;;;4.43;1.60;;;28.80;48.50;;;;;;4981680;28;20474;-79
2022/09/09 08:58:44;;;;;;;14.47;1.93;;;28.80;48.50;;;;;;4981046;28;20461;-79
2022/09/09 09:01:41;;;;;;;2.73;1.70;;;28.90;48.70;;;;;;4981226;28;20461;-79
2022/09/09 09:04:17;;;;;;;1.50;1.40;;;29.00;48.50;;;;;;4981201;28;20454;-80
2022/09/09 09:06:50;;;;;;;3.00;1.60;;;29.20;48.40;;;;;;4982222;28;20481;-79
2022/09/09 09:09:22;;;;;;;2.07;1.77;;;29.30;48.00;;;;;;4980679;28;20450;-80
2022/09/09 09:11:53;;;;;;;2.23;1.60;;;29.30;47.70;;;;;;4980571;28;21023;-79
2022/09/09 09:14:23;;;;;;;2.00;1.60;;;29.30;47.50;;;;;;4981110;28;20457;-78
2022/09/09 09:16:53;;;;;;;5.30;1.87;;;29.40;47.50;;;;;;4979165;28;20429;-79
2022/09/09 09:19:22;;;;;;;1.70;1.60;;;29.50;47.20;;;;;;4979133;28;20453;-78
2022/09/09 09:21:52;;;;;;;1.90;1.70;;;29.50;46.90;;;;;;4980854;28;20442;-79
2022/09/09 09:24:21;;;;;;;2.90;1.70;;;29.60;46.90;;;;;;4980141;28;20504;-79
2022/09/09 09:26:51;;;;;;;2.60;1.87;;;29.60;46.60;;;;;;4979489;28;20838;-78
2022/09/09 09:29:20;;;;;;;2.60;1.47;;;29.70;46.60;;;;;;4978610;28;20450;-79
2022/09/09 09:31:49;;;;;;;2.37;1.70;;;29.80;46.40;;;;;;4980024;28;20450;-79
2022/09/09 09:34:17;;;;;;;5.30;1.80;;;29.90;46.20;;;;;;4978978;28;20475;-78
2022/09/09 09:36:47;;;;;;;2.93;1.97;;;29.90;45.90;;;;;;4978138;28;20474;-78
2022/09/09 09:39:24;;;;;;;3.53;1.87;;;30.00;46.10;;;;;;4977690;28;20461;-77
2022/09/09 09:42:14;;;;;;;2.10;1.50;;;30.10;45.60;;;;;;4977695;28;20956;-79
2022/09/09 09:44:48;;;;;;;2.33;1.70;;;30.20;45.50;;;;;;4978499;28;20454;-78
2022/09/09 09:47:17;;;;;;;4.23;1.63;;;30.20;45.40;;;;;;4980305;28;20450;-79
2022/09/09 09:49:55;;;;;;;1.80;1.70;;;30.30;45.20;;;;;;4979033;28;20457;-79
2022/09/09 09:52:24;;;;;;;4.97;1.77;;;30.50;44.70;;;;;;4979071;28;20565;-78
2022/09/09 09:54:52;;;;;;;5.13;1.87;;;30.60;44.60;;;;;;4966747;28;20435;-78
2022/09/09 09:57:25;;;;;;;2.23;2.00;;;30.80;44.10;;;;;;4959916;28;20450;-77
2022/09/09 10:00:02;;;;;;;4.73;1.87;;;30.80;44.50;;;;;;4974485;28;20446;-79
2022/09/09 10:02:38;;;;;;;5.33;1.80;;;30.80;43.80;;;;;;4977000;28;20529;-79
2022/09/09 10:05:07;;;;;;;9.93;1.73;;;30.80;44.00;;;;;;4977430;28;20473;-79
2022/09/09 10:07:37;;;;;;;2.70;1.50;;;30.70;44.20;;;;;;4977250;28;20450;-81
2022/09/09 10:10:06;;;;;;;5.53;1.50;;;30.70;44.30;;;;;;4975852;28;20439;-79
2022/09/09 10:12:42;;;;;;;3.13;1.50;;;30.80;44.30;;;;;;4974419;28;20977;-79
2022/09/09 10:15:23;;;;;;;4.17;1.70;;;30.90;44.30;;;;;;4974839;28;20470;-78
2022/09/09 10:17:55;;;;;;;2.00;1.60;;;31.10;44.70;;;;;;4974695;28;20446;-79
2022/09/09 10:20:31;;;;;;;1.67;1.50;;;31.30;43.80;;;;;;4975023;28;20442;-79
2022/09/09 10:23:05;;;;;;;1.73;1.40;;;31.20;43.60;;;;;;4973857;28;20445;-78
2022/09/09 10:25:39;;;;;;;1.93;1.53;;;31.20;44.30;;;;;;4975436;28;20462;-79
2022/09/09 10:28:30;;;;;;;3.00;1.47;;;31.20;43.50;;;;;;4975165;28;20438;-79
2022/09/09 10:31:03;;;;;;;2.80;1.47;;;31.20;43.40;;;;;;4974791;28;20422;-79
2022/09/09 10:33:33;;;;;;;2.57;1.30;;;31.30;43.40;;;;;;4982866;28;20473;-80
2022/09/09 10:36:06;;;;;;;4.07;1.50;;;31.30;43.40;;;;;;4996482;28;20461;-82
2022/09/09 10:38:38;;;;;;;5.13;1.67;;;31.20;43.30;;;;;;4994056;28;20422;-80
2022/09/09 10:41:21;;;;;;;5.17;1.40;;;31.10;43.50;;;;;;4995730;28;20518;-82
2022/09/09 10:44:19;;;;;;;3.63;1.67;;;31.30;43.80;;;;;;4996973;28;20438;-82
2022/09/09 10:46:53;;;;;;;2.00;1.67;;;31.50;43.20;;;;;;4995702;28;20486;-83
2022/09/09 10:49:29;;;;;;;1.63;1.53;;;31.60;43.00;;;;;;4997613;28;20448;-81
2022/09/09 10:51:59;;;;;;;5.10;1.70;;;31.50;42.70;;;;;;4997780;28;20433;-82
2022/09/09 10:54:34;;;;;;;2.00;1.50;;;31.30;43.00;;;;;;4997590;28;20505;-81
2022/09/09 10:57:04;;;;;;;2.50;1.83;;;31.40;43.30;;;;;;4996711;28;20426;-82
2022/09/09 10:59:35;;;;;;;4.20;1.80;;;31.40;43.00;;;;;;4988772;28;20438;-81
2022/09/09 11:02:06;;;;;;;3.33;1.33;;;31.40;42.90;;;;;;4982944;28;20434;-81
2022/09/09 11:04:36;;;;;;;3.90;1.63;;;31.40;42.80;;;;;;4981508;28;20526;-82
2022/09/09 11:07:13;;;;;;;2.90;1.57;;;31.30;43.10;;;;;;4982330;28;20972;-81
2022/09/09 11:09:43;;;;;;;1.73;1.47;;;31.30;43.50;;;;;;4983343;28;20438;-82
2022/09/09 11:12:13;;;;;;;2.53;1.47;;;31.60;42.70;;;;;;4984006;28;20438;-81
2022/09/09 11:14:44;;;;;;;1.30;1.20;;;32.20;42.60;;;;;;4979502;28;20552;-82
2022/09/09 11:17:13;;;;;;;3.47;1.30;;;32.60;40.90;;;;;;4978386;28;20952;-81
2022/09/09 11:19:43;;;;;;;1.67;1.57;;;33.30;39.70;;;;;;4977434;28;20450;-81
2022/09/09 11:22:17;;;;;;;2.27;1.30;;;32.90;39.60;;;;;;4978757;28;20456;-81
2022/09/09 11:24:45;;;;;;;5.13;1.10;;;33.00;40.80;;;;;;4978420;28;20522;-81
2022/09/09 11:27:15;;;;;;;1.57;1.10;;;34.40;38.30;;;;;;4978621;28;20439;-82
2022/09/09 11:30:19;;;;;;;1.50;1.40;;;35.50;36.20;;;;;;4981207;28;20446;-82
2022/09/09 11:33:16;;;;;;;1.10;1.00;;;36.10;35.50;;;;;;4970486;28;20435;-81
2022/09/09 11:35:51;;;;;;;3.50;1.23;;;35.70;34.90;;;;;;4977519;28;20532;-82
2022/09/09 11:38:26;;;;;;;1.30;1.20;;;35.10;35.90;;;;;;4968933;28;20556;-82
2022/09/09 11:40:59;;;;;;;1.00;1.00;;;36.10;34.90;;;;;;4981232;28;20826;-82
2022/09/09 11:43:29;;;;;;;1.13;1.03;;;35.80;34.40;;;;;;4978394;28;20541;-82
2022/09/09 11:46:00;;;;;;;1.33;1.23;;;35.00;35.60;;;;;;4980074;28;20517;-82
2022/09/09 11:48:33;;;;;;;1.63;1.10;;;34.20;36.80;;;;;;4978692;28;20450;-81
2022/09/09 11:51:04;;;;;;;1.47;1.37;;;33.50;37.80;;;;;;4978205;28;20453;-81
2022/09/09 11:53:33;;;;;;;2.60;1.57;;;33.00;38.90;;;;;;4978384;28;20476;-81
2022/09/09 11:56:07;;;;;;;3.43;1.63;;;32.60;39.60;;;;;;4980179;28;20481;-81
2022/09/09 11:58:40;;;;;;;3.00;1.40;;;32.20;40.40;;;;;;4982568;28;20929;-82
2022/09/09 12:01:17;;;;;;;3.37;1.77;;;31.80;41.10;;;;;;4985354;28;20450;-81
2022/09/09 12:03:46;;;;;;;1.80;1.70;;;31.70;41.70;;;;;;4984873;28;20421;-82
2022/09/09 12:06:16;;;;;;;1.80;1.43;;;31.60;42.20;;;;;;4988664;28;20465;-83
2022/09/09 12:08:46;;;;;;;1.40;1.27;;;32.10;42.70;;;;;;4987091;28;20831;-82
2022/09/09 12:11:23;;;;;;;2.03;1.40;;;34.20;38.70;;;;;;4985642;28;20508;-80
2022/09/09 12:13:54;;;;;;;2.10;1.20;;;35.90;35.90;;;;;;4981841;28;20474;-81
2022/09/09 12:16:34;;;;;;;1.90;1.40;;;35.80;35.00;;;;;;4983003;28;20493;-81
2022/09/09 12:19:08;;;;;;;1.23;1.20;;;34.80;36.10;;;;;;4983702;28;20500;-81
2022/09/09 12:21:38;;;;;;;1.90;1.30;;;34.10;37.60;;;;;;4983335;28;20450;-83
2022/09/09 12:24:08;;;;;;;1.53;1.30;;;33.90;38.20;;;;;;4980491;28;20515;-83
2022/09/09 12:26:39;;;;;;;2.90;1.20;;;33.40;38.80;;;;;;4980870;28;20465;-82
2022/09/09 12:29:14;;;;;;;2.20;1.60;;;32.90;39.30;;;;;;4980809;28;20450;-82
2022/09/09 12:31:50;;;;;;;2.07;1.87;;;32.50;40.20;;;;;;4980694;28;20489;-83
2022/09/09 12:34:24;;;;;;;3.67;1.47;;;32.20;40.80;;;;;;4976930;28;20507;-81
2022/09/09 12:36:57;;;;;;;2.50;1.90;;;31.90;41.60;;;;;;4982179;28;20478;-82
2022/09/09 12:39:29;;;;;;;1.63;1.50;;;31.70;42.00;;;;;;4970333;28;20532;-81
2022/09/09 12:41:58;;;;;;;2.03;1.80;;;31.40;42.60;;;;;;4980329;28;20462;-80
2022/09/09 12:44:27;;;;;;;2.00;1.80;;;31.30;42.80;;;;;;4983423;28;20476;-83
2022/09/09 12:46:59;;;;;;;4.33;1.50;;;31.20;43.60;;;;;;4980707;28;20494;-81
2022/09/09 12:49:33;;;;;;;4.77;1.70;;;31.10;43.60;;;;;;4978957;28;20453;-80
2022/09/09 12:52:05;;;;;;;5.10;1.50;;;31.00;43.80;;;;;;4979506;28;20457;-81
2022/09/09 12:54:34;;;;;;;2.80;2.10;;;30.90;43.80;;;;;;4979923;28;20564;-82
2022/09/09 12:57:02;;;;;;;2.13;1.87;;;30.90;44.00;;;;;;4980129;28;20453;-82
2022/09/09 12:59:36;;;;;;;2.30;1.87;;;30.80;44.10;;;;;;4979133;28;20544;-82
2022/09/09 13:02:17;;;;;;;2.90;1.77;;;30.80;44.10;;;;;;4980023;28;20445;-82
2022/09/09 13:04:46;;;;;;;2.03;1.80;;;30.70;44.10;;;;;;4978228;28;20879;-82
2022/09/09 13:07:16;;;;;;;3.90;2.00;;;30.60;44.60;;;;;;4980455;28;20442;-83